Terminal Aerodrome Forecast
Issued by NWS Shreveport, LA

Home | Current Version | Previous Version | Text Only | Print | Product List | Glossary On
Versions: 1 2 3 4 5 6 7 8 9 10 11 12 13 14 15 16 17
000
FTUS44 KSHV 201100 CCA
TAFGGG
TAF COR
KGGG 201145Z 2012/2112 19006KT P6SM FEW008 SCT020
      TEMPO 2012/2014 BKN008 BKN020
     FM201400 18009KT P6SM SCT030 SCT250
     FM202100 16008KT P6SM VCTS SCT045CB SCT250
     FM210000 19005KT P6SM SCT250=

USA.gov is the U.S. government's official web portal to all federal, state and local government web resources and services.